sensor_id;sensor_type;location;lat;lon;timestamp;P1;durP1;ratioP1;P2;durP2;ratioP2
6821;SDS011;3449;48.728;8.968;2022-12-18T00:01:57;81.30;;;27.63;;
6821;SDS011;3449;48.728;8.968;2022-12-18T00:04:25;65.83;;;24.27;;
6821;SDS011;3449;48.728;8.968;2022-12-18T00:06:53;73.83;;;26.87;;
6821;SDS011;3449;48.728;8.968;2022-12-18T00:09:23;80.67;;;28.50;;
6821;SDS011;3449;48.728;8.968;2022-12-18T00:11:50;73.50;;;26.20;;
6821;SDS011;3449;48.728;8.968;2022-12-18T00:14:18;65.53;;;23.83;;
6821;SDS011;3449;48.728;8.968;2022-12-18T00:16:46;64.13;;;25.60;;
6821;SDS011;3449;48.728;8.968;2022-12-18T00:19:13;77.67;;;25.13;;
6821;SDS011;3449;48.728;8.968;2022-12-18T00:21:41;80.27;;;28.23;;
6821;SDS011;3449;48.728;8.968;2022-12-18T00:24:09;78.50;;;26.27;;
6821;SDS011;3449;48.728;8.968;2022-12-18T00:26:37;68.30;;;25.10;;
6821;SDS011;3449;48.728;8.968;2022-12-18T00:29:05;59.07;;;23.00;;
6821;SDS011;3449;48.728;8.968;2022-12-18T00:31:37;77.47;;;28.30;;
6821;SDS011;3449;48.728;8.968;2022-12-18T00:34:04;73.57;;;23.63;;
6821;SDS011;3449;48.728;8.968;2022-12-18T00:36:32;56.20;;;23.20;;
6821;SDS011;3449;48.728;8.968;2022-12-18T00:39:03;67.47;;;22.53;;
6821;SDS011;3449;48.728;8.968;2022-12-18T00:41:30;64.47;;;22.40;;
6821;SDS011;3449;48.728;8.968;2022-12-18T00:44:15;69.20;;;23.13;;
6821;SDS011;3449;48.728;8.968;2022-12-18T00:46:45;66.13;;;22.10;;
6821;SDS011;3449;48.728;8.968;2022-12-18T00:49:13;56.97;;;21.80;;
6821;SDS011;3449;48.728;8.968;2022-12-18T00:51:41;63.83;;;22.77;;
6821;SDS011;3449;48.728;8.968;2022-12-18T00:54:08;63.57;;;21.90;;
6821;SDS011;3449;48.728;8.968;2022-12-18T00:56:35;64.37;;;23.47;;
6821;SDS011;3449;48.728;8.968;2022-12-18T00:59:03;60.30;;;21.40;;
6821;SDS011;3449;48.728;8.968;2022-12-18T01:01:30;72.63;;;25.27;;
6821;SDS011;3449;48.728;8.968;2022-12-18T01:04:00;69.17;;;23.40;;
6821;SDS011;3449;48.728;8.968;2022-12-18T01:06:28;59.00;;;24.80;;
6821;SDS011;3449;48.728;8.968;2022-12-18T01:08:56;61.43;;;24.07;;
6821;SDS011;3449;48.728;8.968;2022-12-18T01:11:23;64.03;;;25.03;;
6821;SDS011;3449;48.728;8.968;2022-12-18T01:13:51;68.43;;;27.80;;
6821;SDS011;3449;48.728;8.968;2022-12-18T01:16:22;56.83;;;22.47;;
6821;SDS011;3449;48.728;8.968;2022-12-18T01:18:50;66.67;;;22.40;;
6821;SDS011;3449;48.728;8.968;2022-12-18T01:21:20;60.70;;;23.00;;
6821;SDS011;3449;48.728;8.968;2022-12-18T01:23:50;75.50;;;21.60;;
6821;SDS011;3449;48.728;8.968;2022-12-18T01:26:18;65.97;;;22.50;;
6821;SDS011;3449;48.728;8.968;2022-12-18T01:28:45;57.80;;;20.70;;
6821;SDS011;3449;48.728;8.968;2022-12-18T01:31:13;59.60;;;20.90;;
6821;SDS011;3449;48.728;8.968;2022-12-18T01:33:42;53.87;;;20.70;;
6821;SDS011;3449;48.728;8.968;2022-12-18T01:36:14;64.40;;;20.07;;
6821;SDS011;3449;48.728;8.968;2022-12-18T01:38:43;55.20;;;19.23;;
6821;SDS011;3449;48.728;8.968;2022-12-18T01:41:10;66.87;;;23.30;;
6821;SDS011;3449;48.728;8.968;2022-12-18T01:43:45;64.80;;;20.60;;
6821;SDS011;3449;48.728;8.968;2022-12-18T01:46:14;54.20;;;19.10;;
6821;SDS011;3449;48.728;8.968;2022-12-18T01:48:41;59.97;;;20.67;;
6821;SDS011;3449;48.728;8.968;2022-12-18T01:51:10;57.67;;;20.10;;
6821;SDS011;3449;48.728;8.968;2022-12-18T01:53:38;62.17;;;19.80;;
6821;SDS011;3449;48.728;8.968;2022-12-18T01:56:11;49.00;;;19.30;;
6821;SDS011;3449;48.728;8.968;2022-12-18T01:58:41;57.90;;;19.20;;
6821;SDS011;3449;48.728;8.968;2022-12-18T02:01:15;55.20;;;19.50;;
6821;SDS011;3449;48.728;8.968;2022-12-18T02:03:42;64.70;;;19.20;;
6821;SDS011;3449;48.728;8.968;2022-12-18T02:06:12;50.43;;;18.87;;
6821;SDS011;3449;48.728;8.968;2022-12-18T02:08:45;63.97;;;21.40;;
6821;SDS011;3449;48.728;8.968;2022-12-18T02:11:24;55.43;;;19.33;;
6821;SDS011;3449;48.728;8.968;2022-12-18T02:14:02;76.10;;;20.57;;
6821;SDS011;3449;48.728;8.968;2022-12-18T02:16:38;50.80;;;23.90;;
6821;SDS011;3449;48.728;8.968;2022-12-18T02:19:14;53.57;;;21.60;;
6821;SDS011;3449;48.728;8.968;2022-12-18T02:21:54;58.40;;;21.73;;
6821;SDS011;3449;48.728;8.968;2022-12-18T02:24:33;53.43;;;19.30;;
6821;SDS011;3449;48.728;8.968;2022-12-18T02:27:09;55.60;;;19.77;;
6821;SDS011;3449;48.728;8.968;2022-12-18T02:29:38;46.77;;;18.40;;
6821;SDS011;3449;48.728;8.968;2022-12-18T02:32:08;62.70;;;20.67;;
6821;SDS011;3449;48.728;8.968;2022-12-18T02:34:38;55.40;;;17.50;;
6821;SDS011;3449;48.728;8.968;2022-12-18T02:37:12;45.43;;;18.23;;
6821;SDS011;3449;48.728;8.968;2022-12-18T02:39:42;48.50;;;16.90;;
6821;SDS011;3449;48.728;8.968;2022-12-18T02:42:14;53.13;;;18.33;;
6821;SDS011;3449;48.728;8.968;2022-12-18T02:44:42;42.70;;;15.47;;
6821;SDS011;3449;48.728;8.968;2022-12-18T02:47:10;41.67;;;15.67;;
6821;SDS011;3449;48.728;8.968;2022-12-18T02:49:41;51.13;;;17.20;;
6821;SDS011;3449;48.728;8.968;2022-12-18T02:52:17;53.43;;;17.47;;
6821;SDS011;3449;48.728;8.968;2022-12-18T02:54:55;49.03;;;16.70;;
6821;SDS011;3449;48.728;8.968;2022-12-18T02:57:31;41.70;;;14.90;;
6821;SDS011;3449;48.728;8.968;2022-12-18T03:00:03;48.53;;;16.50;;
6821;SDS011;3449;48.728;8.968;2022-12-18T03:02:34;41.10;;;14.37;;
6821;SDS011;3449;48.728;8.968;2022-12-18T03:05:07;49.97;;;15.63;;
6821;SDS011;3449;48.728;8.968;2022-12-18T03:07:42;40.27;;;14.97;;
6821;SDS011;3449;48.728;8.968;2022-12-18T03:10:14;44.73;;;17.90;;
6821;SDS011;3449;48.728;8.968;2022-12-18T03:12:48;49.30;;;16.77;;
6821;SDS011;3449;48.728;8.968;2022-12-18T03:15:19;46.97;;;16.97;;
6821;SDS011;3449;48.728;8.968;2022-12-18T03:17:50;60.00;;;19.70;;
6821;SDS011;3449;48.728;8.968;2022-12-18T03:20:21;67.87;;;19.37;;
6821;SDS011;3449;48.728;8.968;2022-12-18T03:22:51;54.77;;;19.90;;
6821;SDS011;3449;48.728;8.968;2022-12-18T03:25:22;44.00;;;16.27;;
6821;SDS011;3449;48.728;8.968;2022-12-18T03:27:53;60.57;;;16.77;;
6821;SDS011;3449;48.728;8.968;2022-12-18T03:30:23;41.67;;;16.97;;
6821;SDS011;3449;48.728;8.968;2022-12-18T03:32:52;57.70;;;17.13;;
6821;SDS011;3449;48.728;8.968;2022-12-18T03:35:25;48.23;;;17.07;;
6821;SDS011;3449;48.728;8.968;2022-12-18T03:37:55;51.47;;;17.67;;
6821;SDS011;3449;48.728;8.968;2022-12-18T03:40:23;57.20;;;16.50;;
6821;SDS011;3449;48.728;8.968;2022-12-18T03:42:59;53.50;;;16.83;;
6821;SDS011;3449;48.728;8.968;2022-12-18T03:45:34;60.60;;;16.83;;
6821;SDS011;3449;48.728;8.968;2022-12-18T03:48:04;67.20;;;18.97;;
6821;SDS011;3449;48.728;8.968;2022-12-18T03:50:37;56.07;;;18.80;;
6821;SDS011;3449;48.728;8.968;2022-12-18T03:53:14;60.43;;;18.37;;
6821;SDS011;3449;48.728;8.968;2022-12-18T03:55:49;52.13;;;17.60;;
6821;SDS011;3449;48.728;8.968;2022-12-18T03:58:20;53.53;;;18.47;;
6821;SDS011;3449;48.728;8.968;2022-12-18T04:00:50;57.57;;;17.80;;
6821;SDS011;3449;48.728;8.968;2022-12-18T04:03:20;60.77;;;16.77;;
6821;SDS011;3449;48.728;8.968;2022-12-18T04:05:48;52.87;;;16.20;;
6821;SDS011;3449;48.728;8.968;2022-12-18T04:08:17;76.27;;;20.87;;
6821;SDS011;3449;48.728;8.968;2022-12-18T04:10:45;54.50;;;19.80;;
6821;SDS011;3449;48.728;8.968;2022-12-18T04:13:12;62.63;;;20.00;;
6821;SDS011;3449;48.728;8.968;2022-12-18T04:15:48;63.07;;;18.23;;
6821;SDS011;3449;48.728;8.968;2022-12-18T04:18:15;66.83;;;19.00;;
6821;SDS011;3449;48.728;8.968;2022-12-18T04:20:42;59.00;;;15.83;;
6821;SDS011;3449;48.728;8.968;2022-12-18T04:23:09;60.20;;;16.30;;
6821;SDS011;3449;48.728;8.968;2022-12-18T04:25:36;51.23;;;15.90;;
6821;SDS011;3449;48.728;8.968;2022-12-18T04:28:03;72.30;;;15.23;;
6821;SDS011;3449;48.728;8.968;2022-12-18T04:30:30;58.07;;;15.47;;
6821;SDS011;3449;48.728;8.968;2022-12-18T04:32:58;54.97;;;15.40;;
6821;SDS011;3449;48.728;8.968;2022-12-18T04:35:25;68.33;;;15.97;;
6821;SDS011;3449;48.728;8.968;2022-12-18T04:37:52;53.87;;;14.30;;
6821;SDS011;3449;48.728;8.968;2022-12-18T04:40:19;53.27;;;15.67;;
6821;SDS011;3449;48.728;8.968;2022-12-18T04:42:46;54.43;;;13.27;;
6821;SDS011;3449;48.728;8.968;2022-12-18T04:45:13;55.90;;;16.07;;
6821;SDS011;3449;48.728;8.968;2022-12-18T04:47:40;61.97;;;17.10;;
6821;SDS011;3449;48.728;8.968;2022-12-18T04:50:08;53.47;;;14.10;;
6821;SDS011;3449;48.728;8.968;2022-12-18T04:52:35;50.40;;;14.60;;
6821;SDS011;3449;48.728;8.968;2022-12-18T04:55:03;60.33;;;16.80;;
6821;SDS011;3449;48.728;8.968;2022-12-18T04:57:30;48.33;;;14.60;;
6821;SDS011;3449;48.728;8.968;2022-12-18T04:59:57;58.90;;;14.77;;
6821;SDS011;3449;48.728;8.968;2022-12-18T05:02:23;56.27;;;14.83;;
6821;SDS011;3449;48.728;8.968;2022-12-18T05:04:50;65.40;;;15.17;;
6821;SDS011;3449;48.728;8.968;2022-12-18T05:07:19;47.20;;;11.77;;
6821;SDS011;3449;48.728;8.968;2022-12-18T05:09:45;36.67;;;12.20;;
6821;SDS011;3449;48.728;8.968;2022-12-18T05:12:12;68.30;;;16.27;;
6821;SDS011;3449;48.728;8.968;2022-12-18T05:14:39;50.47;;;13.60;;
6821;SDS011;3449;48.728;8.968;2022-12-18T05:17:06;43.50;;;14.27;;
6821;SDS011;3449;48.728;8.968;2022-12-18T05:19:33;62.97;;;15.93;;
6821;SDS011;3449;48.728;8.968;2022-12-18T05:22:04;70.07;;;16.07;;
6821;SDS011;3449;48.728;8.968;2022-12-18T05:24:35;63.10;;;15.20;;
6821;SDS011;3449;48.728;8.968;2022-12-18T05:27:02;54.20;;;16.67;;
6821;SDS011;3449;48.728;8.968;2022-12-18T05:29:29;62.90;;;16.33;;
6821;SDS011;3449;48.728;8.968;2022-12-18T05:31:56;59.90;;;16.07;;
6821;SDS011;3449;48.728;8.968;2022-12-18T05:34:23;59.37;;;16.93;;
6821;SDS011;3449;48.728;8.968;2022-12-18T05:36:50;76.60;;;18.00;;
6821;SDS011;3449;48.728;8.968;2022-12-18T05:39:16;54.70;;;15.10;;
6821;SDS011;3449;48.728;8.968;2022-12-18T05:41:45;81.10;;;20.53;;
6821;SDS011;3449;48.728;8.968;2022-12-18T05:44:11;54.87;;;18.20;;
6821;SDS011;3449;48.728;8.968;2022-12-18T05:46:41;63.77;;;18.93;;
6821;SDS011;3449;48.728;8.968;2022-12-18T05:49:08;48.97;;;17.40;;
6821;SDS011;3449;48.728;8.968;2022-12-18T05:51:35;75.90;;;19.57;;
6821;SDS011;3449;48.728;8.968;2022-12-18T05:54:02;59.40;;;17.10;;
6821;SDS011;3449;48.728;8.968;2022-12-18T05:56:29;65.57;;;18.13;;
6821;SDS011;3449;48.728;8.968;2022-12-18T05:58:57;82.73;;;18.13;;
6821;SDS011;3449;48.728;8.968;2022-12-18T06:01:25;54.17;;;15.90;;
6821;SDS011;3449;48.728;8.968;2022-12-18T06:03:53;56.07;;;14.63;;
6821;SDS011;3449;48.728;8.968;2022-12-18T06:06:21;68.13;;;15.80;;
6821;SDS011;3449;48.728;8.968;2022-12-18T06:08:50;58.63;;;17.30;;
6821;SDS011;3449;48.728;8.968;2022-12-18T06:11:18;47.53;;;15.63;;
6821;SDS011;3449;48.728;8.968;2022-12-18T06:13:49;57.60;;;16.33;;
6821;SDS011;3449;48.728;8.968;2022-12-18T06:16:18;51.53;;;14.97;;
6821;SDS011;3449;48.728;8.968;2022-12-18T06:18:45;47.87;;;14.90;;
6821;SDS011;3449;48.728;8.968;2022-12-18T06:21:12;53.30;;;14.77;;
6821;SDS011;3449;48.728;8.968;2022-12-18T06:23:39;58.13;;;18.47;;
6821;SDS011;3449;48.728;8.968;2022-12-18T06:26:07;49.30;;;14.30;;
6821;SDS011;3449;48.728;8.968;2022-12-18T06:28:36;51.07;;;14.10;;
6821;SDS011;3449;48.728;8.968;2022-12-18T06:31:03;44.00;;;14.70;;
6821;SDS011;3449;48.728;8.968;2022-12-18T06:33:32;45.10;;;15.03;;
6821;SDS011;3449;48.728;8.968;2022-12-18T06:35:59;55.87;;;15.00;;
6821;SDS011;3449;48.728;8.968;2022-12-18T06:38:27;44.70;;;16.80;;
6821;SDS011;3449;48.728;8.968;2022-12-18T06:40:54;56.40;;;16.80;;
6821;SDS011;3449;48.728;8.968;2022-12-18T06:43:21;51.27;;;16.43;;
6821;SDS011;3449;48.728;8.968;2022-12-18T06:45:48;56.97;;;22.40;;
6821;SDS011;3449;48.728;8.968;2022-12-18T06:48:17;51.57;;;19.40;;
6821;SDS011;3449;48.728;8.968;2022-12-18T06:50:46;51.63;;;18.60;;
6821;SDS011;3449;48.728;8.968;2022-12-18T06:53:13;65.53;;;20.03;;
6821;SDS011;3449;48.728;8.968;2022-12-18T06:55:40;42.97;;;16.43;;
6821;SDS011;3449;48.728;8.968;2022-12-18T06:58:07;53.60;;;17.07;;
6821;SDS011;3449;48.728;8.968;2022-12-18T07:00:34;55.83;;;17.97;;
6821;SDS011;3449;48.728;8.968;2022-12-18T07:03:01;50.07;;;15.97;;
6821;SDS011;3449;48.728;8.968;2022-12-18T07:05:28;50.87;;;16.47;;
6821;SDS011;3449;48.728;8.968;2022-12-18T07:07:57;52.13;;;13.30;;
6821;SDS011;3449;48.728;8.968;2022-12-18T07:10:24;37.07;;;13.00;;
6821;SDS011;3449;48.728;8.968;2022-12-18T07:12:51;42.13;;;14.37;;
6821;SDS011;3449;48.728;8.968;2022-12-18T07:15:18;48.93;;;14.63;;
6821;SDS011;3449;48.728;8.968;2022-12-18T07:17:44;74.53;;;16.80;;
6821;SDS011;3449;48.728;8.968;2022-12-18T07:20:11;55.93;;;15.27;;
6821;SDS011;3449;48.728;8.968;2022-12-18T07:22:38;44.73;;;14.10;;
6821;SDS011;3449;48.728;8.968;2022-12-18T07:25:07;52.23;;;17.73;;
6821;SDS011;3449;48.728;8.968;2022-12-18T07:27:34;57.40;;;16.43;;
6821;SDS011;3449;48.728;8.968;2022-12-18T07:30:01;69.63;;;17.00;;
6821;SDS011;3449;48.728;8.968;2022-12-18T07:32:28;63.47;;;17.20;;
6821;SDS011;3449;48.728;8.968;2022-12-18T07:34:56;44.30;;;16.43;;
6821;SDS011;3449;48.728;8.968;2022-12-18T07:37:23;57.17;;;17.50;;
6821;SDS011;3449;48.728;8.968;2022-12-18T07:39:50;61.30;;;16.40;;
6821;SDS011;3449;48.728;8.968;2022-12-18T07:42:18;53.70;;;15.80;;
6821;SDS011;3449;48.728;8.968;2022-12-18T07:44:57;38.17;;;10.70;;
6821;SDS011;3449;48.728;8.968;2022-12-18T07:47:24;55.13;;;16.10;;
6821;SDS011;3449;48.728;8.968;2022-12-18T07:49:51;60.07;;;17.20;;
6821;SDS011;3449;48.728;8.968;2022-12-18T07:52:18;52.93;;;17.30;;
6821;SDS011;3449;48.728;8.968;2022-12-18T07:54:45;46.90;;;15.70;;
6821;SDS011;3449;48.728;8.968;2022-12-18T07:57:13;48.90;;;15.00;;
6821;SDS011;3449;48.728;8.968;2022-12-18T07:59:42;52.00;;;15.90;;
6821;SDS011;3449;48.728;8.968;2022-12-18T08:02:09;52.20;;;15.17;;
6821;SDS011;3449;48.728;8.968;2022-12-18T08:04:36;44.83;;;15.03;;
6821;SDS011;3449;48.728;8.968;2022-12-18T08:07:03;49.80;;;18.77;;
6821;SDS011;3449;48.728;8.968;2022-12-18T08:09:30;70.40;;;18.63;;
6821;SDS011;3449;48.728;8.968;2022-12-18T08:11:57;53.37;;;18.90;;
6821;SDS011;3449;48.728;8.968;2022-12-18T08:14:23;63.27;;;18.23;;
6821;SDS011;3449;48.728;8.968;2022-12-18T08:16:52;68.10;;;21.30;;
6821;SDS011;3449;48.728;8.968;2022-12-18T08:19:19;60.70;;;18.83;;
6821;SDS011;3449;48.728;8.968;2022-12-18T08:21:46;46.53;;;14.50;;
6821;SDS011;3449;48.728;8.968;2022-12-18T08:24:13;65.13;;;18.70;;
6821;SDS011;3449;48.728;8.968;2022-12-18T08:26:41;77.03;;;26.90;;
6821;SDS011;3449;48.728;8.968;2022-12-18T08:29:15;62.70;;;21.70;;
6821;SDS011;3449;48.728;8.968;2022-12-18T08:31:45;62.57;;;19.53;;
6821;SDS011;3449;48.728;8.968;2022-12-18T08:34:14;48.27;;;18.90;;
6821;SDS011;3449;48.728;8.968;2022-12-18T08:36:42;44.53;;;18.33;;
6821;SDS011;3449;48.728;8.968;2022-12-18T08:39:09;48.70;;;16.00;;
6821;SDS011;3449;48.728;8.968;2022-12-18T08:41:37;49.03;;;16.20;;
6821;SDS011;3449;48.728;8.968;2022-12-18T08:44:33;43.30;;;14.77;;
6821;SDS011;3449;48.728;8.968;2022-12-18T08:47:06;43.50;;;15.10;;
6821;SDS011;3449;48.728;8.968;2022-12-18T08:49:35;44.80;;;14.83;;
6821;SDS011;3449;48.728;8.968;2022-12-18T08:52:02;60.37;;;15.57;;
6821;SDS011;3449;48.728;8.968;2022-12-18T08:54:29;46.30;;;14.90;;
6821;SDS011;3449;48.728;8.968;2022-12-18T08:56:56;68.57;;;16.60;;
6821;SDS011;3449;48.728;8.968;2022-12-18T08:59:23;58.27;;;17.17;;
6821;SDS011;3449;48.728;8.968;2022-12-18T09:01:53;51.00;;;16.70;;
6821;SDS011;3449;48.728;8.968;2022-12-18T09:04:20;45.43;;;15.50;;
6821;SDS011;3449;48.728;8.968;2022-12-18T09:06:48;38.90;;;14.50;;
6821;SDS011;3449;48.728;8.968;2022-12-18T09:09:15;50.20;;;15.90;;
6821;SDS011;3449;48.728;8.968;2022-12-18T09:11:42;55.60;;;16.47;;
6821;SDS011;3449;48.728;8.968;2022-12-18T09:14:09;42.43;;;15.57;;
6821;SDS011;3449;48.728;8.968;2022-12-18T09:16:36;57.67;;;19.43;;
6821;SDS011;3449;48.728;8.968;2022-12-18T09:19:03;51.33;;;17.33;;
6821;SDS011;3449;48.728;8.968;2022-12-18T09:21:32;46.63;;;16.33;;
6821;SDS011;3449;48.728;8.968;2022-12-18T09:24:01;52.13;;;14.53;;
6821;SDS011;3449;48.728;8.968;2022-12-18T09:26:29;40.10;;;13.37;;
6821;SDS011;3449;48.728;8.968;2022-12-18T09:28:56;49.50;;;14.80;;
6821;SDS011;3449;48.728;8.968;2022-12-18T09:31:23;45.87;;;15.10;;
6821;SDS011;3449;48.728;8.968;2022-12-18T09:33:50;48.37;;;16.07;;
6821;SDS011;3449;48.728;8.968;2022-12-18T09:36:18;45.43;;;14.17;;
6821;SDS011;3449;48.728;8.968;2022-12-18T09:38:45;37.50;;;13.80;;
6821;SDS011;3449;48.728;8.968;2022-12-18T09:41:25;46.50;;;14.40;;
6821;SDS011;3449;48.728;8.968;2022-12-18T09:44:02;48.50;;;14.70;;
6821;SDS011;3449;48.728;8.968;2022-12-18T09:46:37;42.90;;;15.23;;
6821;SDS011;3449;48.728;8.968;2022-12-18T09:49:11;51.47;;;16.43;;
6821;SDS011;3449;48.728;8.968;2022-12-18T09:51:42;39.37;;;13.80;;
6821;SDS011;3449;48.728;8.968;2022-12-18T09:54:14;48.27;;;15.70;;
6821;SDS011;3449;48.728;8.968;2022-12-18T09:56:47;43.77;;;13.37;;
6821;SDS011;3449;48.728;8.968;2022-12-18T09:59:18;42.77;;;14.27;;
6821;SDS011;3449;48.728;8.968;2022-12-18T10:01:49;42.87;;;13.60;;
6821;SDS011;3449;48.728;8.968;2022-12-18T10:04:16;39.90;;;13.33;;
6821;SDS011;3449;48.728;8.968;2022-12-18T10:06:44;41.77;;;14.07;;
6821;SDS011;3449;48.728;8.968;2022-12-18T10:09:19;41.93;;;13.70;;
6821;SDS011;3449;48.728;8.968;2022-12-18T10:11:55;37.87;;;13.40;;
6821;SDS011;3449;48.728;8.968;2022-12-18T10:14:30;35.37;;;13.20;;
6821;SDS011;3449;48.728;8.968;2022-12-18T10:17:03;38.87;;;14.63;;
6821;SDS011;3449;48.728;8.968;2022-12-18T10:19:39;44.17;;;14.37;;
6821;SDS011;3449;48.728;8.968;2022-12-18T10:22:17;37.00;;;12.60;;
6821;SDS011;3449;48.728;8.968;2022-12-18T10:24:53;42.80;;;14.47;;
6821;SDS011;3449;48.728;8.968;2022-12-18T10:27:26;41.80;;;13.13;;
6821;SDS011;3449;48.728;8.968;2022-12-18T10:29:54;41.17;;;14.33;;
6821;SDS011;3449;48.728;8.968;2022-12-18T10:32:22;40.83;;;13.13;;
6821;SDS011;3449;48.728;8.968;2022-12-18T10:34:52;37.07;;;13.30;;
6821;SDS011;3449;48.728;8.968;2022-12-18T10:37:21;37.00;;;14.03;;
6821;SDS011;3449;48.728;8.968;2022-12-18T10:40:04;35.17;;;13.17;;
6821;SDS011;3449;48.728;8.968;2022-12-18T10:42:35;34.13;;;12.27;;
6821;SDS011;3449;48.728;8.968;2022-12-18T10:45:03;37.60;;;13.37;;
6821;SDS011;3449;48.728;8.968;2022-12-18T10:47:43;27.67;;;11.57;;
6821;SDS011;3449;48.728;8.968;2022-12-18T10:50:20;36.13;;;13.80;;
6821;SDS011;3449;48.728;8.968;2022-12-18T10:52:53;34.00;;;12.70;;
6821;SDS011;3449;48.728;8.968;2022-12-18T10:55:21;38.97;;;12.20;;
6821;SDS011;3449;48.728;8.968;2022-12-18T10:57:50;37.17;;;14.47;;
6821;SDS011;3449;48.728;8.968;2022-12-18T11:00:22;38.93;;;14.17;;
6821;SDS011;3449;48.728;8.968;2022-12-18T11:02:51;35.37;;;13.40;;
6821;SDS011;3449;48.728;8.968;2022-12-18T11:05:25;37.57;;;14.40;;
6821;SDS011;3449;48.728;8.968;2022-12-18T11:07:54;37.03;;;13.43;;
6821;SDS011;3449;48.728;8.968;2022-12-18T11:10:22;34.97;;;13.20;;
6821;SDS011;3449;48.728;8.968;2022-12-18T11:12:53;32.50;;;11.87;;
6821;SDS011;3449;48.728;8.968;2022-12-18T11:15:21;32.77;;;14.10;;
6821;SDS011;3449;48.728;8.968;2022-12-18T11:17:52;32.27;;;11.77;;
6821;SDS011;3449;48.728;8.968;2022-12-18T11:20:20;30.63;;;11.60;;
6821;SDS011;3449;48.728;8.968;2022-12-18T11:22:58;34.37;;;12.87;;
6821;SDS011;3449;48.728;8.968;2022-12-18T11:25:28;32.27;;;12.57;;
6821;SDS011;3449;48.728;8.968;2022-12-18T11:27:57;32.57;;;11.80;;
6821;SDS011;3449;48.728;8.968;2022-12-18T11:30:27;37.20;;;13.57;;
6821;SDS011;3449;48.728;8.968;2022-12-18T11:32:56;26.87;;;11.70;;
6821;SDS011;3449;48.728;8.968;2022-12-18T11:35:34;37.07;;;13.07;;
6821;SDS011;3449;48.728;8.968;2022-12-18T11:38:09;32.37;;;12.10;;
6821;SDS011;3449;48.728;8.968;2022-12-18T11:40:43;37.50;;;13.00;;
6821;SDS011;3449;48.728;8.968;2022-12-18T11:43:17;31.10;;;11.40;;
6821;SDS011;3449;48.728;8.968;2022-12-18T11:45:53;33.87;;;12.00;;
6821;SDS011;3449;48.728;8.968;2022-12-18T11:48:26;33.47;;;12.40;;
6821;SDS011;3449;48.728;8.968;2022-12-18T11:50:57;26.40;;;10.50;;
6821;SDS011;3449;48.728;8.968;2022-12-18T11:53:27;29.80;;;12.20;;
6821;SDS011;3449;48.728;8.968;2022-12-18T11:55:58;29.50;;;11.20;;
6821;SDS011;3449;48.728;8.968;2022-12-18T11:58:38;33.03;;;11.40;;
6821;SDS011;3449;48.728;8.968;2022-12-18T12:01:18;29.50;;;11.83;;
6821;SDS011;3449;48.728;8.968;2022-12-18T12:07:11;22.77;;;11.00;;
6821;SDS011;3449;48.728;8.968;2022-12-18T12:09:52;31.03;;;11.43;;
6821;SDS011;3449;48.728;8.968;2022-12-18T12:12:30;28.70;;;11.20;;
6821;SDS011;3449;48.728;8.968;2022-12-18T12:15:16;30.50;;;12.43;;
6821;SDS011;3449;48.728;8.968;2022-12-18T12:17:54;40.53;;;12.87;;
6821;SDS011;3449;48.728;8.968;2022-12-18T12:20:31;31.37;;;12.63;;
6821;SDS011;3449;48.728;8.968;2022-12-18T12:23:11;37.33;;;13.83;;
6821;SDS011;3449;48.728;8.968;2022-12-18T12:25:46;37.40;;;12.93;;
6821;SDS011;3449;48.728;8.968;2022-12-18T12:28:20;35.10;;;12.77;;
6821;SDS011;3449;48.728;8.968;2022-12-18T12:31:05;34.50;;;12.90;;
6821;SDS011;3449;48.728;8.968;2022-12-18T12:33:40;36.17;;;14.67;;
6821;SDS011;3449;48.728;8.968;2022-12-18T12:36:17;31.57;;;12.10;;
6821;SDS011;3449;48.728;8.968;2022-12-18T12:38:50;30.70;;;12.40;;
6821;SDS011;3449;48.728;8.968;2022-12-18T12:41:22;30.70;;;13.50;;
6821;SDS011;3449;48.728;8.968;2022-12-18T12:44:12;38.10;;;13.90;;
6821;SDS011;3449;48.728;8.968;2022-12-18T12:46:44;33.00;;;12.80;;
6821;SDS011;3449;48.728;8.968;2022-12-18T12:49:14;42.60;;;13.37;;
6821;SDS011;3449;48.728;8.968;2022-12-18T12:51:43;37.20;;;13.97;;
6821;SDS011;3449;48.728;8.968;2022-12-18T12:54:17;40.20;;;13.87;;
6821;SDS011;3449;48.728;8.968;2022-12-18T12:56:48;43.43;;;15.93;;
6821;SDS011;3449;48.728;8.968;2022-12-18T12:59:24;45.73;;;14.50;;
6821;SDS011;3449;48.728;8.968;2022-12-18T13:02:03;36.10;;;13.83;;
6821;SDS011;3449;48.728;8.968;2022-12-18T13:04:38;32.57;;;13.13;;
6821;SDS011;3449;48.728;8.968;2022-12-18T13:07:13;40.00;;;15.23;;
6821;SDS011;3449;48.728;8.968;2022-12-18T13:12:54;33.40;;;13.20;;
6821;SDS011;3449;48.728;8.968;2022-12-18T13:15:21;30.07;;;12.23;;
6821;SDS011;3449;48.728;8.968;2022-12-18T13:18:03;35.20;;;13.17;;
6821;SDS011;3449;48.728;8.968;2022-12-18T13:20:39;37.93;;;13.63;;
6821;SDS011;3449;48.728;8.968;2022-12-18T13:23:27;41.00;;;14.20;;
6821;SDS011;3449;48.728;8.968;2022-12-18T13:25:56;39.10;;;13.70;;
6821;SDS011;3449;48.728;8.968;2022-12-18T13:28:24;46.97;;;15.23;;
6821;SDS011;3449;48.728;8.968;2022-12-18T13:34:35;39.40;;;13.07;;
6821;SDS011;3449;48.728;8.968;2022-12-18T13:43:22;37.83;;;14.57;;
6821;SDS011;3449;48.728;8.968;2022-12-18T13:46:05;34.13;;;14.00;;
6821;SDS011;3449;48.728;8.968;2022-12-18T13:48:48;37.50;;;14.00;;
6821;SDS011;3449;48.728;8.968;2022-12-18T13:51:22;40.27;;;14.70;;
6821;SDS011;3449;48.728;8.968;2022-12-18T13:53:50;37.50;;;12.70;;
6821;SDS011;3449;48.728;8.968;2022-12-18T13:56:21;35.67;;;13.40;;
6821;SDS011;3449;48.728;8.968;2022-12-18T13:59:09;41.27;;;14.60;;
6821;SDS011;3449;48.728;8.968;2022-12-18T14:01:43;45.03;;;14.37;;
6821;SDS011;3449;48.728;8.968;2022-12-18T14:04:18;38.07;;;14.30;;
6821;SDS011;3449;48.728;8.968;2022-12-18T14:06:49;39.17;;;15.27;;
6821;SDS011;3449;48.728;8.968;2022-12-18T14:09:19;34.57;;;12.83;;
6821;SDS011;3449;48.728;8.968;2022-12-18T14:11:50;40.80;;;13.10;;
6821;SDS011;3449;48.728;8.968;2022-12-18T14:14:18;39.53;;;13.57;;
6821;SDS011;3449;48.728;8.968;2022-12-18T14:16:45;43.20;;;13.93;;
6821;SDS011;3449;48.728;8.968;2022-12-18T14:19:14;35.93;;;14.57;;
6821;SDS011;3449;48.728;8.968;2022-12-18T14:21:46;40.83;;;13.80;;
6821;SDS011;3449;48.728;8.968;2022-12-18T14:24:16;43.87;;;14.90;;
6821;SDS011;3449;48.728;8.968;2022-12-18T14:26:44;38.13;;;14.13;;
6821;SDS011;3449;48.728;8.968;2022-12-18T14:29:21;37.10;;;13.33;;
6821;SDS011;3449;48.728;8.968;2022-12-18T14:34:33;43.57;;;13.63;;
6821;SDS011;3449;48.728;8.968;2022-12-18T14:37:01;37.93;;;15.10;;
6821;SDS011;3449;48.728;8.968;2022-12-18T14:39:29;48.43;;;14.63;;
6821;SDS011;3449;48.728;8.968;2022-12-18T14:41:56;40.47;;;14.10;;
6821;SDS011;3449;48.728;8.968;2022-12-18T14:44:22;42.27;;;14.50;;
6821;SDS011;3449;48.728;8.968;2022-12-18T14:46:49;43.90;;;15.17;;
6821;SDS011;3449;48.728;8.968;2022-12-18T14:49:21;38.57;;;14.40;;
6821;SDS011;3449;48.728;8.968;2022-12-18T14:51:53;45.33;;;14.83;;
6821;SDS011;3449;48.728;8.968;2022-12-18T14:54:22;40.17;;;15.00;;
6821;SDS011;3449;48.728;8.968;2022-12-18T14:56:51;49.17;;;17.27;;
6821;SDS011;3449;48.728;8.968;2022-12-18T14:59:26;42.60;;;14.63;;
6821;SDS011;3449;48.728;8.968;2022-12-18T15:01:58;38.20;;;13.40;;
6821;SDS011;3449;48.728;8.968;2022-12-18T15:04:28;46.33;;;15.97;;
6821;SDS011;3449;48.728;8.968;2022-12-18T15:07:08;47.97;;;15.87;;
6821;SDS011;3449;48.728;8.968;2022-12-18T15:09:41;43.97;;;15.27;;
6821;SDS011;3449;48.728;8.968;2022-12-18T15:12:28;45.13;;;16.30;;
6821;SDS011;3449;48.728;8.968;2022-12-18T15:15:00;50.97;;;17.47;;
6821;SDS011;3449;48.728;8.968;2022-12-18T15:17:28;44.23;;;16.60;;
6821;SDS011;3449;48.728;8.968;2022-12-18T15:19:58;44.60;;;15.90;;
6821;SDS011;3449;48.728;8.968;2022-12-18T15:22:28;44.33;;;15.20;;
6821;SDS011;3449;48.728;8.968;2022-12-18T15:24:58;49.50;;;17.00;;
6821;SDS011;3449;48.728;8.968;2022-12-18T15:27:26;42.30;;;15.47;;